Time;durP1;ratioP1;P1;durP2;ratioP2;P2;SDS_P1;SDS_P2;PMS_P1;PMS_P2;Temp;Humidity;BMP_temperature;BMP_pressure;BME280_temperature;BME280_humidity;BME280_pressure;Samples;Min_cycle;Max_cycle;Signal;HPM_P1;HPM_P2
2022/04/18 00:00:23;;;;;;;8.23;5.22;;;;;;;6.53;67.16;102137.41;5034362;28;20961;-67
2022/04/18 00:02:49;;;;;;;8.07;5.15;;;;;;;6.50;66.84;102140.94;5053390;28;20028;-68
2022/04/18 00:05:14;;;;;;;10.25;5.32;;;;;;;6.48;67.08;102140.06;5052238;28;20039;-67
2022/04/18 00:07:40;;;;;;;8.70;5.65;;;;;;;6.44;67.39;102130.47;5018840;28;20553;-67
2022/04/18 00:10:06;;;;;;;8.98;5.43;;;;;;;6.42;67.34;102131.38;5034254;28;20113;-67
2022/04/18 00:12:32;;;;;;;8.40;6.05;;;;;;;6.38;67.53;102125.25;5034671;28;20492;-67
2022/04/18 00:14:58;;;;;;;8.20;5.55;;;;;;;6.35;67.32;102120.00;5052378;28;20142;-67
2022/04/18 00:17:24;;;;;;;7.65;5.55;;;;;;;6.33;67.68;102127.91;5052532;28;20162;-68
2022/04/18 00:19:49;;;;;;;10.27;5.97;;;;;;;6.31;68.30;102123.56;5051771;28;20405;-68
2022/04/18 00:22:15;;;;;;;10.13;6.25;;;;;;;6.30;68.38;102114.78;5052760;28;21595;-67
2022/04/18 00:24:40;;;;;;;10.90;6.07;;;;;;;6.29;69.07;102117.41;5051931;28;20071;-67
2022/04/18 00:27:06;;;;;;;10.05;5.82;;;;;;;6.25;69.22;102111.31;5033279;28;20127;-67
2022/04/18 00:29:32;;;;;;;9.05;5.78;;;;;;;6.22;69.24;102117.44;5053517;28;20123;-68
2022/04/18 00:31:57;;;;;;;9.73;5.55;;;;;;;6.20;69.12;102111.34;5052337;28;20040;-67
2022/04/18 00:34:23;;;;;;;10.00;5.75;;;;;;;6.18;68.47;102113.13;5053114;28;20047;-67
2022/04/18 00:36:48;;;;;;;10.35;5.88;;;;;;;6.17;68.78;102106.13;5052976;28;20061;-67
2022/04/18 00:39:14;;;;;;;10.43;6.22;;;;;;;6.18;68.73;102106.97;5053001;28;20029;-67
2022/04/18 00:41:39;;;;;;;9.30;5.93;;;;;;;6.15;68.38;102105.22;5051040;28;20489;-68
2022/04/18 00:44:05;;;;;;;10.20;5.80;;;;;;;6.10;68.81;102100.00;5052450;28;20048;-67
2022/04/18 00:46:31;;;;;;;9.52;5.80;;;;;;;6.08;68.59;102099.16;5051953;28;20028;-68
2022/04/18 00:48:56;;;;;;;15.93;5.95;;;;;;;6.06;69.10;102097.41;5051663;28;20036;-67
2022/04/18 00:51:25;;;;;;;8.70;5.32;;;;;;;6.06;68.54;102095.63;5052730;28;20051;-67
2022/04/18 00:53:56;;;;;;;9.95;5.78;;;;;;;6.05;68.24;102107.03;5034177;28;20604;-67
2022/04/18 00:56:22;;;;;;;9.25;5.70;;;;;;;6.03;68.59;102103.56;5037947;28;20119;-67
2022/04/18 00:58:49;;;;;;;9.02;6.15;;;;;;;6.01;68.90;102099.16;5056292;28;20406;-67
2022/04/18 01:01:15;;;;;;;10.13;5.82;;;;;;;5.99;68.46;102104.41;5038814;28;20052;-67
2022/04/18 01:03:42;;;;;;;9.35;5.95;;;;;;;5.97;69.14;102103.56;5056846;28;20071;-67
2022/04/18 01:06:08;;;;;;;9.63;5.90;;;;;;;5.95;68.59;102097.44;5056057;28;20045;-67
2022/04/18 01:08:34;;;;;;;9.48;6.25;;;;;;;5.93;69.48;102096.56;5050561;28;20573;-67
2022/04/18 01:11:00;;;;;;;8.10;5.38;;;;;;;5.90;69.61;102102.75;5054699;28;20029;-67
2022/04/18 01:13:27;;;;;;;7.85;5.57;;;;;;;5.89;69.40;102106.22;5036925;28;20047;-67
2022/04/18 01:15:54;;;;;;;12.15;6.55;;;;;;;5.86;69.52;102090.47;5055668;28;20662;-67
2022/04/18 01:18:20;;;;;;;12.25;6.68;;;;;;;5.84;69.25;102087.00;5056161;28;20044;-67
2022/04/18 01:20:45;;;;;;;10.00;6.20;;;;;;;5.82;69.08;102089.63;5055513;28;20243;-67
2022/04/18 01:23:11;;;;;;;8.95;5.95;;;;;;;5.80;69.32;102086.16;5037690;28;20410;-67
2022/04/18 01:31:05;;;;;;;10.05;6.32;;;;;;;5.75;70.05;102081.78;5054492;28;20313;-67
2022/04/18 01:33:30;;;;;;;8.68;5.93;;;;;;;5.74;70.03;102083.53;5055097;28;20635;-67
2022/04/18 01:35:56;;;;;;;8.68;5.95;;;;;;;5.72;70.58;102085.28;5055347;28;20739;-68
2022/04/18 01:38:22;;;;;;;10.43;6.32;;;;;;;5.71;70.21;102083.53;5037123;28;20197;-67
2022/04/18 01:40:47;;;;;;;11.93;6.60;;;;;;;5.67;69.25;102077.44;5056136;28;20074;-67
2022/04/18 01:43:13;;;;;;;10.10;6.30;;;;;;;5.65;68.91;102075.69;5054271;28;20037;-67
2022/04/18 01:45:38;;;;;;;10.75;6.40;;;;;;;5.61;69.47;102074.84;5055020;28;20036;-67
2022/04/18 01:48:04;;;;;;;11.48;6.60;;;;;;;5.59;69.50;102079.22;5054774;28;20036;-67
2022/04/18 01:50:30;;;;;;;11.88;7.25;;;;;;;5.56;69.57;102068.75;5055503;28;20079;-67
2022/04/18 01:52:55;;;;;;;10.68;6.35;;;;;;;5.53;69.13;102076.63;5055450;28;20036;-67
2022/04/18 01:55:21;;;;;;;11.40;6.28;;;;;;;5.51;69.36;102071.38;5055842;28;20135;-67
2022/04/18 01:57:46;;;;;;;9.77;6.43;;;;;;;5.47;69.32;102077.53;5054680;28;20021;-67
2022/04/18 02:00:12;;;;;;;9.70;6.07;;;;;;;5.43;69.02;102076.69;5055111;28;20032;-67
2022/04/18 02:02:37;;;;;;;10.32;6.30;;;;;;;5.38;69.37;102074.94;5055262;28;20111;-67
2022/04/18 02:05:06;;;;;;;10.52;6.00;;;;;;;5.34;69.23;102071.44;5037235;28;20486;-67
2022/04/18 02:07:32;;;;;;;10.10;5.97;;;;;;;5.27;68.74;102067.97;5053570;28;20047;-67
2022/04/18 02:09:58;;;;;;;10.95;6.55;;;;;;;5.22;68.63;102066.25;5055161;28;21135;-68
2022/04/18 02:12:23;;;;;;;10.23;6.55;;;;;;;5.15;69.09;102068.03;5033340;28;20041;-67
2022/04/18 02:14:48;;;;;;;11.20;6.90;;;;;;;5.08;69.35;102058.41;5035719;28;20037;-67
2022/04/18 02:17:14;;;;;;;11.80;6.32;;;;;;;5.03;69.82;102061.06;5034153;28;21553;-67
2022/04/18 02:19:39;;;;;;;11.05;7.07;;;;;;;4.98;69.57;102058.44;5034459;28;20438;-67
2022/04/18 02:22:05;;;;;;;12.30;7.07;;;;;;;4.93;69.76;102054.97;5032969;28;20025;-67
2022/04/18 02:24:31;;;;;;;12.10;7.25;;;;;;;4.89;69.58;102058.44;5034974;28;20037;-67
2022/04/18 02:26:57;;;;;;;12.10;6.75;;;;;;;4.85;69.40;102057.59;5035338;28;20028;-67
2022/04/18 02:29:22;;;;;;;10.27;6.60;;;;;;;4.82;69.92;102054.09;5033966;28;20051;-67
2022/04/18 02:34:32;;;;;;;10.13;6.43;;;;;;;4.79;69.37;102051.50;5034992;28;20391;-67
2022/04/18 02:36:58;;;;;;;10.75;6.65;;;;;;;4.78;69.62;102052.38;5033754;28;20033;-67
2022/04/18 02:39:23;;;;;;;9.90;6.82;;;;;;;4.74;69.72;102039.25;5034017;28;20101;-67
2022/04/18 02:41:48;;;;;;;10.63;5.95;;;;;;;4.73;70.26;102040.13;5035496;28;20037;-67
2022/04/18 02:44:14;;;;;;;10.23;6.70;;;;;;;4.72;70.04;102040.13;5035126;28;20102;-67
2022/04/18 02:46:39;;;;;;;9.77;6.13;;;;;;;4.70;70.22;102036.63;5036351;28;20032;-67
2022/04/18 02:49:05;;;;;;;11.40;6.93;;;;;;;4.68;70.13;102036.63;5036929;28;20472;-68
2022/04/18 02:51:30;;;;;;;11.70;6.82;;;;;;;4.68;69.61;102031.38;5034541;28;20411;-67
2022/04/18 02:53:56;;;;;;;10.48;6.57;;;;;;;4.67;70.14;102029.63;5023476;28;20045;-67
2022/04/18 02:56:22;;;;;;;11.02;6.50;;;;;;;4.67;69.54;102032.25;5036607;28;20107;-68
2022/04/18 02:58:48;;;;;;;12.38;7.18;;;;;;;4.64;69.42;102032.28;5034752;28;20186;-68
2022/04/18 03:01:14;;;;;;;11.23;6.85;;;;;;;4.63;69.90;102027.88;5032413;28;20065;-67
2022/04/18 03:03:39;;;;;;;13.43;7.43;;;;;;;4.63;69.96;102022.63;5032456;28;20432;-67
2022/04/18 03:06:05;;;;;;;10.63;6.68;;;;;;;4.62;69.68;102026.13;5033805;28;20041;-67
2022/04/18 03:08:32;;;;;;;12.25;6.93;;;;;;;4.62;69.82;102018.28;5033559;28;20032;-67
2022/04/18 03:11:04;;;;;;;10.63;7.40;;;;;;;4.62;70.01;102019.16;5034162;28;20140;-67
2022/04/18 03:13:32;;;;;;;13.18;8.05;;;;;;;4.61;69.93;102019.16;5048918;28;20047;-67
2022/04/18 03:15:59;;;;;;;14.00;7.45;;;;;;;4.60;69.93;102013.06;5033383;28;20037;-67
2022/04/18 03:18:26;;;;;;;12.57;7.18;;;;;;;4.60;70.58;102012.16;5020015;28;20040;-67
2022/04/18 03:20:51;;;;;;;12.43;7.35;;;;;;;4.58;69.84;102012.16;5032753;28;20028;-67
2022/04/18 03:23:17;;;;;;;13.50;7.15;;;;;;;4.57;70.16;102009.56;5034266;28;20052;-67
2022/04/18 03:25:42;;;;;;;13.07;7.45;;;;;;;4.55;70.25;102006.94;5032972;28;20029;-67
2022/04/18 03:28:09;;;;;;;12.65;7.75;;;;;;;4.54;69.36;102013.06;5032987;28;20027;-67
2022/04/18 03:30:35;;;;;;;12.18;7.30;;;;;;;4.51;69.56;102004.31;5032786;28;20636;-67
2022/04/18 03:33:00;;;;;;;13.70;7.45;;;;;;;4.47;69.33;102003.44;5020393;28;20032;-67
2022/04/18 03:35:27;;;;;;;12.45;7.15;;;;;;;4.45;69.88;102003.44;5032944;28;20151;-67
2022/04/18 03:40:36;;;;;;;11.50;6.88;;;;;;;4.40;69.68;102002.56;5032989;28;20076;-67
2022/04/18 03:43:03;;;;;;;11.05;7.18;;;;;;;4.38;69.84;102008.69;5033479;28;20116;-67
2022/04/18 03:45:28;;;;;;;12.55;7.20;;;;;;;4.34;70.17;102002.56;5033376;28;21542;-67
2022/04/18 03:47:53;;;;;;;12.95;8.27;;;;;;;4.32;70.30;102004.34;5033555;28;20029;-68
2022/04/18 03:50:19;;;;;;;11.13;7.20;;;;;;;4.29;70.04;102005.22;5032343;28;21113;-67
2022/04/18 03:52:44;;;;;;;12.85;7.10;;;;;;;4.26;69.69;101999.97;5034098;28;20048;-67
2022/04/18 03:55:11;;;;;;;10.20;6.93;;;;;;;4.22;69.78;102006.09;5032612;28;20030;-67
2022/04/18 03:57:37;;;;;;;10.00;7.20;;;;;;;4.19;69.65;102004.34;5032880;28;20024;-67
2022/04/18 04:00:04;;;;;;;8.85;6.78;;;;;;;4.16;70.77;101996.47;5031409;28;20028;-67
2022/04/18 04:02:30;;;;;;;11.77;7.57;;;;;;;4.13;70.58;101993.00;5033830;28;20111;-67
2022/04/18 04:04:55;;;;;;;10.00;7.50;;;;;;;4.12;70.97;101993.84;5032867;28;20132;-67
2022/04/18 04:07:21;;;;;;;11.48;6.38;;;;;;;4.10;71.36;101998.22;5032161;28;20064;-67
2022/04/18 04:09:46;;;;;;;10.15;7.00;;;;;;;4.07;70.96;101992.09;5033123;28;20111;-67
2022/04/18 04:12:12;;;;;;;11.48;7.40;;;;;;;4.03;70.72;101992.97;5005846;28;20457;-68
2022/04/18 04:14:37;;;;;;;11.43;7.43;;;;;;;4.01;71.06;101988.59;5053109;28;20036;-67
2022/04/18 04:17:03;;;;;;;14.43;8.30;;;;;;;3.99;71.54;101988.63;5053320;28;20032;-67
2022/04/18 04:19:29;;;;;;;12.73;7.68;;;;;;;3.98;71.63;101988.59;5052549;28;20035;-67
2022/04/18 04:21:55;;;;;;;11.10;7.03;;;;;;;3.96;71.81;101985.13;5053624;28;20021;-67
2022/04/18 04:24:20;;;;;;;11.90;7.65;;;;;;;3.96;72.02;101985.13;5052297;28;20108;-68
2022/04/18 04:26:47;;;;;;;11.98;7.75;;;;;;;3.94;72.33;101987.72;5051893;28;20070;-67
2022/04/18 04:29:13;;;;;;;13.82;7.68;;;;;;;3.92;72.11;101985.09;5052444;28;20442;-67
2022/04/18 04:31:39;;;;;;;14.55;7.47;;;;;;;3.91;71.74;101987.72;5056399;28;20024;-67
2022/04/18 04:34:04;;;;;;;13.77;8.10;;;;;;;3.89;71.88;101982.50;5055729;28;20038;-67
2022/04/18 04:36:30;;;;;;;13.25;7.90;;;;;;;3.87;71.67;101984.22;5038019;28;20111;-67
2022/04/18 04:38:55;;;;;;;11.88;8.40;;;;;;;3.86;72.06;101985.09;5039100;28;20037;-67
2022/04/18 04:41:21;;;;;;;12.32;7.88;;;;;;;3.84;71.88;101988.56;5057568;28;20479;-67
2022/04/18 04:43:46;;;;;;;12.63;7.55;;;;;;;3.80;71.92;101980.72;5056421;28;20115;-67
2022/04/18 04:46:12;;;;;;;12.25;7.93;;;;;;;3.79;72.02;101988.59;5056115;28;20052;-67
2022/04/18 04:48:37;;;;;;;11.57;7.88;;;;;;;3.79;72.01;101993.81;5056885;28;20047;-67
2022/04/18 04:51:03;;;;;;;13.30;7.70;;;;;;;3.79;72.19;101999.06;5057115;28;20028;-67
2022/04/18 04:53:28;;;;;;;12.27;7.65;;;;;;;3.79;72.23;101996.44;5057204;28;20428;-68
2022/04/18 04:55:54;;;;;;;12.30;8.10;;;;;;;3.79;72.26;101996.44;5055612;28;20436;-67
2022/04/18 04:58:19;;;;;;;13.65;8.32;;;;;;;3.78;72.01;101994.69;5056556;28;20433;-67
2022/04/18 05:00:45;;;;;;;14.48;8.88;;;;;;;3.79;71.72;101999.06;5056199;28;20036;-68
2022/04/18 05:03:10;;;;;;;12.77;8.40;;;;;;;3.79;71.87;101999.06;5056336;28;20032;-67
2022/04/18 05:05:36;;;;;;;13.40;8.65;;;;;;;3.81;72.08;101994.69;5056134;28;20135;-67
2022/04/18 05:08:02;;;;;;;11.98;8.13;;;;;;;3.83;71.76;101997.31;5056784;28;20028;-67
2022/04/18 05:10:27;;;;;;;11.65;7.80;;;;;;;3.83;71.86;101992.06;5036916;28;20149;-67
2022/04/18 05:12:53;;;;;;;13.05;8.35;;;;;;;3.87;71.45;101996.47;5055314;28;21548;-67
2022/04/18 05:15:19;;;;;;;15.57;8.75;;;;;;;3.88;71.88;101993.81;5055909;28;20037;-67
2022/04/18 05:17:45;;;;;;;13.45;8.50;;;;;;;3.92;71.72;101992.09;5054759;28;20037;-67
2022/04/18 05:20:11;;;;;;;15.95;8.60;;;;;;;3.96;71.90;101992.97;5054637;28;20068;-68
2022/04/18 05:22:36;;;;;;;13.90;8.02;;;;;;;4.00;71.72;101990.34;5056347;28;20044;-67
2022/04/18 05:25:02;;;;;;;14.15;8.20;;;;;;;4.02;70.99;101991.22;5055377;28;20101;-67
2022/04/18 05:27:28;;;;;;;13.88;8.88;;;;;;;4.06;71.08;101992.09;5056083;28;20088;-68
2022/04/18 05:29:53;;;;;;;14.07;9.18;;;;;;;4.11;71.27;101992.97;5054879;28;20100;-67
2022/04/18 05:32:19;;;;;;;13.55;8.65;;;;;;;4.14;71.41;101990.34;5054703;28;20107;-67
2022/04/18 05:34:44;;;;;;;13.57;8.20;;;;;;;4.21;71.45;101991.22;5055849;28;20090;-67
2022/04/18 05:37:10;;;;;;;15.65;8.50;;;;;;;4.26;71.21;101989.50;5037817;28;20499;-67
2022/04/18 05:39:36;;;;;;;13.88;8.88;;;;;;;4.32;71.88;101986.84;5054906;28;21918;-67
2022/04/18 05:42:03;;;;;;;13.25;8.68;;;;;;;4.38;72.16;101990.34;5055203;28;20044;-67
2022/04/18 05:44:31;;;;;;;13.02;8.13;;;;;;;4.44;71.38;101987.69;5038022;28;20032;-67
2022/04/18 05:46:57;;;;;;;17.38;9.32;;;;;;;4.51;71.12;101976.31;5054117;28;20476;-67
2022/04/18 05:49:22;;;;;;;15.82;8.75;;;;;;;4.56;71.39;101984.19;5037147;28;20067;-67
2022/04/18 05:51:48;;;;;;;15.35;8.50;;;;;;;4.62;70.69;101968.44;5055686;28;20239;-68
2022/04/18 05:54:13;;;;;;;12.23;8.38;;;;;;;4.69;71.20;101983.28;5054635;28;20045;-67
2022/04/18 05:56:39;;;;;;;13.93;9.15;;;;;;;4.77;71.84;101983.25;5054922;28;20020;-67
2022/04/18 05:59:04;;;;;;;15.88;9.15;;;;;;;4.85;72.15;101978.84;5037053;28;20028;-68
2022/04/18 06:01:30;;;;;;;12.63;8.80;;;;;;;4.95;72.04;101984.94;5055067;28;20081;-67
2022/04/18 06:03:56;;;;;;;18.90;8.98;;;;;;;5.05;71.52;101979.69;5053560;28;20044;-67
2022/04/18 06:06:22;;;;;;;15.52;9.23;;;;;;;5.14;71.15;101984.88;5035943;28;20572;-67
2022/04/18 06:08:47;;;;;;;16.70;8.70;;;;;;;5.26;71.64;101990.09;5054040;28;20503;-67
2022/04/18 06:11:13;;;;;;;15.10;8.68;;;;;;;5.36;71.12;101995.28;5054400;28;20029;-68
2022/04/18 06:13:39;;;;;;;16.38;9.18;;;;;;;5.45;71.14;101989.97;5034265;28;20707;-67
2022/04/18 06:16:05;;;;;;;12.98;8.90;;;;;;;5.55;71.20;101990.78;5034267;28;20354;-67
2022/04/18 06:18:31;;;;;;;13.85;9.02;;;;;;;5.67;71.10;101984.63;5034560;28;20444;-67
2022/04/18 06:20:56;;;;;;;14.15;9.07;;;;;;;5.82;71.38;101989.75;5032600;28;20040;-67
2022/04/18 06:23:22;;;;;;;13.75;8.70;;;;;;;6.06;71.60;101986.97;5035590;28;20056;-67
2022/04/18 06:25:48;;;;;;;14.82;8.57;;;;;;;6.30;70.45;101987.63;5034058;28;20028;-67
2022/04/18 06:28:14;;;;;;;14.43;8.25;;;;;;;6.50;69.99;101980.44;5018498;28;20700;-67
2022/04/18 06:30:40;;;;;;;17.20;9.23;;;;;;;6.69;69.80;101984.66;5033178;28;20357;-67
2022/04/18 06:33:10;;;;;;;14.45;9.05;;;;;;;6.87;69.74;101984.41;5034424;28;20029;-68
2022/04/18 06:35:35;;;;;;;14.90;8.80;;;;;;;7.05;69.04;101979.84;5033850;28;20434;-67
2022/04/18 06:38:01;;;;;;;13.43;8.77;;;;;;;7.21;68.59;101975.25;5034824;28;20108;-67
2022/04/18 06:40:26;;;;;;;12.25;8.90;;;;;;;7.42;68.27;101983.75;5049174;28;20534;-68
2022/04/18 06:42:52;;;;;;;12.68;8.75;;;;;;;7.61;68.17;101979.97;5034432;28;20025;-68
2022/04/18 06:45:17;;;;;;;14.02;8.05;;;;;;;7.81;67.42;101975.28;5034175;28;20029;-68
2022/04/18 06:47:43;;;;;;;12.93;7.93;;;;;;;8.05;66.47;101978.41;5034621;28;20047;-67
2022/04/18 06:50:11;;;;;;;13.88;8.35;;;;;;;8.24;65.66;101974.53;5034676;28;20367;-68
2022/04/18 06:52:40;;;;;;;12.20;7.85;;;;;;;8.39;64.67;101975.19;5033504;28;20049;-67
2022/04/18 06:55:09;;;;;;;11.30;7.78;;;;;;;8.61;64.62;101973.03;5032611;28;20036;-68
2022/04/18 06:57:35;;;;;;;13.20;8.25;;;;;;;8.83;64.52;101978.78;5034529;28;20278;-68
2022/04/18 07:00:02;;;;;;;13.80;7.55;;;;;;;9.02;64.35;101973.13;5033107;28;20037;-68
2022/04/18 07:02:28;;;;;;;12.02;7.78;;;;;;;9.21;64.10;101970.09;5034441;28;20112;-68
2022/04/18 07:04:53;;;;;;;12.65;7.30;;;;;;;9.33;63.76;101967.16;5034607;28;20029;-67
2022/04/18 07:07:19;;;;;;;12.80;7.45;;;;;;;9.52;63.61;101969.41;5033283;28;21310;-68
2022/04/18 07:09:45;;;;;;;12.45;7.35;;;;;;;9.60;63.46;101969.22;5033543;28;20037;-67
2022/04/18 07:12:10;;;;;;;11.73;7.03;;;;;;;9.77;63.54;101971.47;5034593;28;20112;-68
2022/04/18 07:14:36;;;;;;;12.07;7.45;;;;;;;9.95;63.26;101971.91;5052938;28;21605;-68
2022/04/18 07:17:02;;;;;;;10.52;6.90;;;;;;;10.19;62.35;101970.44;5052971;28;20037;-68
2022/04/18 07:19:28;;;;;;;9.48;6.45;;;;;;;10.28;62.58;101972.84;5034822;28;20047;-68
2022/04/18 07:21:55;;;;;;;8.82;6.47;;;;;;;10.38;62.47;101973.47;5035512;28;20036;-68
2022/04/18 07:24:22;;;;;;;11.45;6.80;;;;;;;10.60;61.94;101972.91;5052633;28;20219;-68
2022/04/18 07:26:48;;;;;;;12.38;7.22;;;;;;;10.65;61.54;101972.78;5054189;28;20043;-68
2022/04/18 07:29:13;;;;;;;11.52;7.07;;;;;;;10.75;61.87;101965.44;5052330;28;20032;-68
2022/04/18 07:31:39;;;;;;;11.73;6.88;;;;;;;10.96;60.27;101970.13;5053593;28;20120;-68
2022/04/18 07:34:04;;;;;;;7.85;5.82;;;;;;;11.08;60.74;101960.09;5053876;28;20021;-68
2022/04/18 07:36:30;;;;;;;9.43;6.65;;;;;;;11.14;59.66;101963.44;5053732;28;20414;-68
2022/04/18 07:38:55;;;;;;;9.15;5.75;;;;;;;11.13;60.22;101964.34;5052488;28;20515;-68
2022/04/18 07:41:23;;;;;;;8.55;6.30;;;;;;;11.14;60.45;101963.44;5054015;28;20161;-68
2022/04/18 07:43:49;;;;;;;8.23;5.70;;;;;;;11.20;59.63;101965.03;5054030;28;20080;-69
2022/04/18 07:46:15;;;;;;;7.57;5.55;;;;;;;11.23;59.52;101962.28;5053797;28;20087;-67
2022/04/18 07:48:41;;;;;;;9.23;5.78;;;;;;;11.33;59.60;101962.88;5052994;28;20033;-67
2022/04/18 07:53:51;;;;;;;8.25;5.60;;;;;;;11.69;57.57;101964.41;5053153;28;20040;-70
2022/04/18 07:56:16;;;;;;;10.65;5.80;;;;;;;11.75;57.72;101961.56;5053829;28;20114;-70
2022/04/18 07:58:42;;;;;;;6.93;5.15;;;;;;;11.77;57.48;101962.38;5055287;28;20043;-74
2022/04/18 08:01:08;;;;;;;10.07;5.55;;;;;;;11.84;56.77;101962.16;5054039;28;20111;-69
2022/04/18 08:03:37;;;;;;;8.10;5.25;;;;;;;11.89;56.33;101965.53;5054481;28;20039;-70
2022/04/18 08:06:03;;;;;;;8.45;5.15;;;;;;;12.03;56.36;101963.31;5036561;28;20402;-69
2022/04/18 08:08:29;;;;;;;6.82;4.95;;;;;;;12.13;56.18;101963.00;5054097;28;20067;-69
2022/04/18 08:10:57;;;;;;;8.20;5.80;;;;;;;12.23;55.84;101961.78;5036123;28;20029;-69
2022/04/18 08:13:22;;;;;;;7.13;5.05;;;;;;;12.36;55.84;101965.75;5054570;28;20062;-69
2022/04/18 08:15:47;;;;;;;8.55;5.20;;;;;;;12.54;56.11;101965.16;5052816;28;20032;-69
2022/04/18 08:18:13;;;;;;;6.95;4.95;;;;;;;12.67;55.47;101961.13;5052178;28;20307;-70
2022/04/18 08:20:38;;;;;;;7.35;5.22;;;;;;;12.83;55.41;101952.56;5054058;28;20025;-70
2022/04/18 08:23:04;;;;;;;8.50;5.22;;;;;;;12.99;54.85;101947.56;5054038;28;20577;-68
2022/04/18 08:25:29;;;;;;;9.27;5.35;;;;;;;13.18;54.26;101947.69;5054872;28;20459;-69
2022/04/18 08:27:55;;;;;;;7.35;5.63;;;;;;;13.27;54.31;101952.69;5054446;28;20028;-69
2022/04/18 08:30:20;;;;;;;11.60;5.25;;;;;;;13.38;53.77;101948.72;5054051;28;20041;-69
2022/04/18 08:32:46;;;;;;;9.05;5.70;;;;;;;13.48;53.60;101949.25;5054910;28;20024;-69
2022/04/18 08:35:12;;;;;;;7.35;5.47;;;;;;;13.61;53.76;101945.16;5053916;28;20043;-69
2022/04/18 08:37:37;;;;;;;7.70;4.90;;;;;;;13.73;53.31;101950.91;5054820;28;20028;-69
2022/04/18 08:40:05;;;;;;;8.55;5.13;;;;;;;13.86;52.83;101949.47;5036272;28;20045;-69
2022/04/18 08:42:37;;;;;;;6.93;4.60;;;;;;;14.03;51.28;101951.44;5052805;28;20055;-69
2022/04/18 08:45:08;;;;;;;7.32;5.00;;;;;;;14.10;51.94;101955.56;5053822;28;20033;-69
2022/04/18 08:53:02;;;;;;;7.38;5.07;;;;;;;14.55;51.78;101951.88;5038648;28;20123;-69
2022/04/18 08:55:29;;;;;;;8.52;5.40;;;;;;;14.61;52.08;101962.28;5053583;28;20738;-68
2022/04/18 08:57:55;;;;;;;6.63;4.93;;;;;;;14.74;51.80;101951.94;5053585;28;20033;-69
2022/04/18 09:00:20;;;;;;;6.13;4.68;;;;;;;14.94;51.71;101961.72;5054141;28;20149;-69
2022/04/18 09:02:46;;;;;;;9.38;4.93;;;;;;;15.07;50.33;101959.31;5054619;28;20040;-69
2022/04/18 09:05:13;;;;;;;8.75;5.25;;;;;;;15.23;50.19;101961.25;5053686;28;20071;-69
2022/04/18 09:07:42;;;;;;;6.20;4.30;;;;;;;15.33;49.93;101955.44;5055041;28;20438;-68
2022/04/18 09:10:08;;;;;;;6.38;4.47;;;;;;;15.42;50.24;101955.94;5052791;28;20554;-69
2022/04/18 09:12:33;;;;;;;6.63;4.80;;;;;;;15.48;50.32;101959.16;5053502;28;20087;-69
2022/04/18 09:14:59;;;;;;;6.55;5.00;;;;;;;15.58;49.66;101962.22;5054126;28;20028;-69
2022/04/18 09:17:33;;;;;;;7.97;4.75;;;;;;;15.71;49.25;101958.97;5056637;28;20068;-69
2022/04/18 09:20:08;;;;;;;6.85;4.55;;;;;;;15.82;49.52;101961.09;5039229;28;20131;-69
2022/04/18 09:22:45;;;;;;;7.35;4.95;;;;;;;15.91;49.64;101954.44;5039915;28;20024;-69
2022/04/18 09:25:22;;;;;;;6.60;5.10;;;;;;;15.95;48.87;101956.91;5057055;28;20110;-69
2022/04/18 09:27:58;;;;;;;7.13;4.53;;;;;;;16.03;48.12;101948.50;5056621;28;20155;-69
2022/04/18 09:30:24;;;;;;;5.70;4.05;;;;;;;16.20;50.84;101952.09;5057330;28;20028;-69
2022/04/18 09:33:00;;;;;;;7.28;4.53;;;;;;;16.35;48.22;101948.63;5056707;28;20035;-69
2022/04/18 09:35:26;;;;;;;6.10;4.00;;;;;;;16.43;49.38;101941.09;5058563;28;20062;-69
2022/04/18 09:37:53;;;;;;;5.05;4.15;;;;;;;16.51;49.56;101937.16;5039756;28;20115;-70
2022/04/18 09:40:23;;;;;;;7.13;4.20;;;;;;;16.56;49.59;101940.41;5039284;28;20037;-69
2022/04/18 09:42:52;;;;;;;5.75;4.18;;;;;;;16.63;49.04;101935.63;5056645;28;20028;-70
2022/04/18 09:45:18;;;;;;;5.82;3.50;;;;;;;16.68;50.35;101937.09;5058042;28;20043;-70
2022/04/18 09:47:43;;;;;;;5.88;3.97;;;;;;;16.89;48.95;101939.53;5037049;28;20041;-69
2022/04/18 09:50:58;;;;;;;4.60;3.72;;;;;;;17.10;48.42;101944.66;5055738;28;20048;-74
2022/04/18 09:53:03;;;;;;;3.97;3.13;;;;;;;17.09;48.96;101940.28;5043168;28;20035;-70
2022/04/18 09:55:29;;;;;;;5.57;3.50;;;;;;;17.08;47.32;101938.56;5057735;28;20029;-69
2022/04/18 09:58:01;;;;;;;4.50;3.30;;;;;;;17.13;45.99;101936.50;5038342;28;20032;-70
2022/04/18 10:00:26;;;;;;;4.75;3.42;;;;;;;17.26;46.43;101927.78;5056268;28;20487;-70
2022/04/18 10:02:52;;;;;;;4.63;3.50;;;;;;;17.23;46.86;101932.34;5055970;28;20056;-70
2022/04/18 10:05:18;;;;;;;3.58;3.20;;;;;;;17.18;46.51;101929.06;5057059;28;20036;-70
2022/04/18 10:07:43;;;;;;;4.03;3.42;;;;;;;17.13;46.09;101923.13;5026954;28;20032;-69
2022/04/18 10:10:09;;;;;;;5.88;3.63;;;;;;;17.10;46.43;101923.28;5037666;28;21413;-71
2022/04/18 10:12:34;;;;;;;4.72;3.58;;;;;;;17.21;45.83;101922.69;5037968;28;20037;-70
2022/04/18 10:15:00;;;;;;;5.20;3.60;;;;;;;17.28;45.25;101924.06;5056593;28;20037;-69
2022/04/18 10:17:27;;;;;;;4.28;3.13;;;;;;;17.24;45.60;101925.19;5038231;28;20090;-70
2022/04/18 10:20:05;;;;;;;4.38;3.33;;;;;;;17.28;45.15;101924.06;5039234;28;20657;-69
2022/04/18 10:22:43;;;;;;;4.35;3.30;;;;;;;17.22;43.52;101922.59;5056210;28;20567;-70
2022/04/18 10:25:11;;;;;;;4.38;3.08;;;;;;;17.17;44.51;101923.81;5056140;28;20539;-69
2022/04/18 10:28:04;;;;;;;4.72;3.95;;;;;;;17.07;42.96;101927.00;5055191;28;20045;-70
2022/04/18 10:30:34;;;;;;;7.80;4.43;;;;;;;17.03;44.69;101916.53;5038260;28;20036;-70
2022/04/18 10:32:59;;;;;;;4.65;3.55;;;;;;;17.01;44.85;101918.41;5023424;28;20029;-70
2022/04/18 10:35:25;;;;;;;4.53;3.47;;;;;;;17.03;44.85;101920.09;5038780;28;20529;-70
2022/04/18 10:37:55;;;;;;;4.65;3.20;;;;;;;16.99;44.61;101921.16;5037853;28;20513;-70
2022/04/18 10:40:20;;;;;;;5.43;3.45;;;;;;;16.97;45.07;101907.91;5025671;28;20080;-70
2022/04/18 10:42:46;;;;;;;4.40;3.22;;;;;;;17.03;44.26;101920.09;5038403;28;20035;-69
2022/04/18 10:45:14;;;;;;;5.45;3.47;;;;;;;17.07;43.72;101912.75;5055486;28;20036;-69
2022/04/18 10:47:54;;;;;;;4.25;3.30;;;;;;;17.14;41.99;101918.59;5056541;28;20174;-69
2022/04/18 10:50:21;;;;;;;3.45;3.05;;;;;;;17.11;43.93;101919.66;5055791;28;20048;-70
2022/04/18 10:53:22;;;;;;;3.70;3.08;;;;;;;17.11;43.15;101914.31;5055740;28;20033;-71
2022/04/18 10:55:50;;;;;;;3.15;2.85;;;;;;;17.14;43.46;101910.59;5055215;28;20042;-69
2022/04/18 10:58:21;;;;;;;4.22;3.13;;;;;;;17.12;43.45;101904.47;5037656;28;20413;-69
2022/04/18 11:00:48;;;;;;;2.97;2.65;;;;;;;17.18;43.47;101909.47;5037862;28;20051;-69
2022/04/18 11:03:13;;;;;;;3.53;2.35;;;;;;;17.21;42.86;101904.81;5055867;28;20119;-69
2022/04/18 11:05:39;;;;;;;3.92;2.90;;;;;;;17.22;41.97;101900.34;5037094;28;20029;-70
2022/04/18 11:08:23;;;;;;;4.65;2.67;;;;;;;17.26;41.97;101904.53;5055819;28;20040;-69
2022/04/18 11:10:48;;;;;;;4.45;2.85;;;;;;;17.24;42.70;101895.75;5037403;28;20736;-69
2022/04/18 11:13:14;;;;;;;3.10;2.72;;;;;;;17.18;42.29;101906.78;5054993;28;20135;-68
2022/04/18 11:15:40;;;;;;;3.00;2.63;;;;;;;17.16;42.53;101911.38;5055915;28;20462;-68
2022/04/18 11:18:09;;;;;;;3.38;2.75;;;;;;;17.16;41.51;101906.88;5055971;28;20047;-69
2022/04/18 11:20:36;;;;;;;2.90;2.47;;;;;;;17.18;41.70;101909.47;5054674;28;20039;-69
2022/04/18 11:23:25;;;;;;;3.15;2.60;;;;;;;17.24;39.24;101904.66;5055035;28;20111;-69
2022/04/18 11:25:56;;;;;;;3.42;2.50;;;;;;;17.30;40.62;101906.09;5055206;28;20093;-69
2022/04/18 11:28:23;;;;;;;3.90;2.65;;;;;;;17.24;41.69;101891.28;5021470;28;20040;-69
2022/04/18 11:30:49;;;;;;;3.58;2.60;;;;;;;17.27;41.89;101900.91;5054728;28;20618;-69
2022/04/18 11:33:15;;;;;;;3.00;2.70;;;;;;;17.36;41.11;101896.84;5055472;28;20449;-69
2022/04/18 11:35:42;;;;;;;2.40;2.20;;;;;;;17.46;40.82;101907.88;5055945;28;20033;-69
2022/04/18 11:38:08;;;;;;;4.50;2.58;;;;;;;17.50;40.69;101894.22;5036679;28;20074;-68
2022/04/18 11:40:38;;;;;;;2.58;2.10;;;;;;;17.52;39.98;101894.16;5041223;28;20539;-68
2022/04/18 11:43:11;;;;;;;3.42;2.10;;;;;;;17.63;39.56;101890.84;5054800;28;20036;-69